Search for airport 
image banner adimage banner adimage banner ad
image banner ad

CA97 - Christy Airstrip

Located in Santa Barbara, United States

ICAO - CA97, IATA -

Data provided by Airmate  

General information

Coordinates: N34°1'11" W119°51'10"
Elevation is 250 feet MSL.
Magnetic variation is 14° East
View others Airports in California

Operational data

Special qualification required
Current time UTC:
Current local time:
Weather at : KSBA - Santa Barbara Muni ( 45 km )
METAR: KSBA 240853Z 08005KT 10SM CLR 15/13 A2998 RMK AO2 SLP153 T01500128 58001 $
TAF: KSBA 240544Z 2406/2506 VRB03KT P6SM SKC FM241300 VRB03KT P6SM BKN010 FM241600 15006KT P6SM BKN015 FM241800 25009KT P6SM SKC FM250300 VRB03KT P6SM SKC
View NOTAMs / SUP AIP / TFR affecting this airport [VIEW]
Communications frequencies: [VIEW]

Runways:

RWY identifierQFULength (ft)Width (ft)SurfaceLDA (ft)
09250750GRASS
27250750GRASS

Airport contact information

Address: Santa Barbara United States

Satellite view of CA97